Time;durP1;ratioP1;P1;durP2;ratioP2;P2;SDS_P1;SDS_P2;PMS_P1;PMS_P2;Temp;Humidity;BMP_temperature;BMP_pressure;BME280_temperature;BME280_humidity;BME280_pressure;Samples;Min_cycle;Max_cycle;Signal;HPM_P1;HPM_P2
2021/10/05 00:00:00;;;;;;;4.50;2.90;;;10.70;88.10;;;;;;5073950;28;20651;-90
2021/10/05 00:02:26;;;;;;;3.83;2.10;;;10.60;88.20;;;;;;5072715;28;20183;-91
2021/10/05 00:04:52;;;;;;;3.63;2.63;;;10.60;88.30;;;;;;5072711;28;20179;-92
2021/10/05 00:07:18;;;;;;;4.97;2.80;;;10.50;88.50;;;;;;5074109;28;20224;-91
2021/10/05 00:09:44;;;;;;;6.03;2.77;;;10.50;88.70;;;;;;5072912;28;20209;-92
2021/10/05 00:12:09;;;;;;;4.17;2.63;;;10.50;88.80;;;;;;5072899;28;20575;-92
2021/10/05 00:14:35;;;;;;;5.50;2.80;;;10.50;88.80;;;;;;5072855;28;20175;-92
2021/10/05 00:17:01;;;;;;;3.77;2.57;;;10.50;88.90;;;;;;5072804;28;20221;-92
2021/10/05 00:19:27;;;;;;;7.87;2.90;;;10.50;88.70;;;;;;5072856;28;20241;-91
2021/10/05 00:21:53;;;;;;;3.93;2.83;;;10.40;88.70;;;;;;5074008;28;20171;-91
2021/10/05 00:24:18;;;;;;;4.93;2.80;;;10.40;88.70;;;;;;5073867;28;20214;-90
2021/10/05 00:26:44;;;;;;;4.13;2.97;;;10.40;88.80;;;;;;5072360;28;20179;-90
2021/10/05 00:29:10;;;;;;;5.53;2.93;;;10.30;88.70;;;;;;5072644;28;20191;-91
2021/10/05 00:31:35;;;;;;;3.40;3.00;;;10.30;88.90;;;;;;5072631;28;20229;-90
2021/10/05 00:34:01;;;;;;;5.17;2.93;;;10.30;88.80;;;;;;5072248;28;20195;-91
2021/10/05 00:36:27;;;;;;;6.50;3.03;;;10.30;88.80;;;;;;5073490;28;20198;-91
2021/10/05 00:38:53;;;;;;;12.57;7.77;;;10.40;88.70;;;;;;5072709;28;20195;-90
2021/10/05 00:41:19;;;;;;;12.43;6.93;;;10.40;88.70;;;;;;5072243;28;20328;-90
2021/10/05 00:43:44;;;;;;;10.90;4.90;;;10.50;88.50;;;;;;5073405;28;20179;-90
2021/10/05 00:46:10;;;;;;;3.93;3.23;;;10.60;88.50;;;;;;5072168;28;20183;-90
2021/10/05 00:48:36;;;;;;;6.77;3.67;;;10.60;88.20;;;;;;5072719;28;20203;-90
2021/10/05 00:51:01;;;;;;;5.07;3.53;;;10.60;88.10;;;;;;5073363;28;20171;-91
2021/10/05 00:53:27;;;;;;;4.00;2.90;;;10.70;88.00;;;;;;5073342;28;20659;-91
2021/10/05 00:55:54;;;;;;;4.90;2.70;;;10.70;88.00;;;;;;5073269;28;20190;-91
2021/10/05 00:58:19;;;;;;;6.97;2.63;;;10.70;87.90;;;;;;5073315;28;20317;-90
2021/10/05 01:00:45;;;;;;;4.83;3.10;;;10.60;87.90;;;;;;5073282;28;20254;-91
2021/10/05 01:03:11;;;;;;;6.53;3.10;;;10.50;88.00;;;;;;5073297;28;20194;-91
2021/10/05 01:05:36;;;;;;;5.47;3.27;;;10.50;88.10;;;;;;5073259;28;20194;-91
2021/10/05 01:08:02;;;;;;;4.60;3.40;;;10.50;88.20;;;;;;5072020;28;20195;-91
2021/10/05 01:10:28;;;;;;;4.90;4.07;;;10.50;88.30;;;;;;5073249;28;20654;-91
2021/10/05 01:12:54;;;;;;;4.77;2.93;;;10.50;88.20;;;;;;5073079;28;20286;-91
2021/10/05 01:15:22;;;;;;;6.60;2.90;;;10.40;88.30;;;;;;5072840;28;20171;-91
2021/10/05 01:17:49;;;;;;;7.63;3.23;;;10.30;88.50;;;;;;5073020;28;20174;-90
2021/10/05 01:20:15;;;;;;;5.17;3.47;;;10.20;88.60;;;;;;5073058;28;20179;-90
2021/10/05 01:22:40;;;;;;;5.80;3.40;;;10.20;88.80;;;;;;5073062;28;20228;-91
2021/10/05 01:25:08;;;;;;;5.10;3.13;;;10.30;88.80;;;;;;5073366;28;20172;-90
2021/10/05 01:27:49;;;;;;;4.13;2.93;;;10.30;88.80;;;;;;5072932;28;20272;-90
2021/10/05 01:30:17;;;;;;;4.90;3.40;;;10.30;88.70;;;;;;5073080;28;20684;-91
2021/10/05 01:32:44;;;;;;;4.17;3.10;;;10.40;88.60;;;;;;5071531;28;20689;-90
2021/10/05 01:35:10;;;;;;;5.33;3.63;;;10.40;88.50;;;;;;5072569;28;20179;-90
2021/10/05 01:37:36;;;;;;;10.13;3.73;;;10.40;88.30;;;;;;5071776;28;20249;-90
2021/10/05 01:40:08;;;;;;;5.63;3.93;;;10.40;88.30;;;;;;5072893;28;20233;-91
2021/10/05 01:42:35;;;;;;;4.00;3.17;;;10.40;88.30;;;;;;5076606;28;20167;-91
2021/10/05 01:45:00;;;;;;;5.20;3.20;;;10.40;88.30;;;;;;5075467;28;20180;-91
2021/10/05 01:47:26;;;;;;;5.50;3.57;;;10.40;88.30;;;;;;5076004;28;20240;-91
2021/10/05 01:49:52;;;;;;;3.57;3.27;;;10.30;88.40;;;;;;5075619;28;20211;-90
2021/10/05 01:52:18;;;;;;;6.67;3.47;;;10.30;88.50;;;;;;5075629;28;20293;-91
2021/10/05 01:54:44;;;;;;;5.33;3.83;;;10.20;88.80;;;;;;5075824;28;20637;-90
2021/10/05 01:57:09;;;;;;;5.27;3.67;;;10.20;89.00;;;;;;5075208;28;20233;-91
2021/10/05 01:59:35;;;;;;;5.47;3.33;;;10.10;89.10;;;;;;5077124;28;20207;-91
2021/10/05 02:02:01;;;;;;;6.53;4.43;;;10.10;89.20;;;;;;5075225;28;20198;-90
2021/10/05 02:04:26;;;;;;;6.07;3.97;;;10.10;89.10;;;;;;5075100;28;20320;-91
2021/10/05 02:06:52;;;;;;;4.63;4.23;;;10.10;89.00;;;;;;5076220;28;20703;-91
2021/10/05 02:09:18;;;;;;;5.43;3.90;;;10.10;88.90;;;;;;5076113;28;20188;-91
2021/10/05 02:11:43;;;;;;;6.87;4.33;;;10.20;88.90;;;;;;5076376;28;20262;-90
2021/10/05 02:14:09;;;;;;;10.07;4.00;;;10.20;89.00;;;;;;5076063;28;20195;-90
2021/10/05 02:16:36;;;;;;;4.90;4.40;;;10.20;89.00;;;;;;5076321;28;20178;-90
2021/10/05 02:19:03;;;;;;;5.90;4.33;;;10.10;89.10;;;;;;5074716;28;20219;-91
2021/10/05 02:21:29;;;;;;;4.87;4.20;;;10.10;89.30;;;;;;5074832;28;20176;-90
2021/10/05 02:26:40;;;;;;;4.77;4.03;;;10.10;89.40;;;;;;5076699;28;20288;-91
2021/10/05 02:29:06;;;;;;;7.43;4.63;;;10.10;89.50;;;;;;5074607;28;20231;-91
2021/10/05 02:31:32;;;;;;;5.07;4.50;;;10.10;89.40;;;;;;5074682;28;20701;-90
2021/10/05 02:33:58;;;;;;;5.57;4.70;;;10.00;89.40;;;;;;5074448;28;20199;-91
2021/10/05 02:36:24;;;;;;;5.53;4.40;;;10.10;89.40;;;;;;5075736;28;20241;-90
2021/10/05 02:38:50;;;;;;;8.43;4.30;;;10.10;89.30;;;;;;5074424;28;20199;-91
2021/10/05 02:41:16;;;;;;;4.43;4.03;;;10.00;89.20;;;;;;5075892;28;20650;-90
2021/10/05 02:43:41;;;;;;;4.17;3.87;;;10.00;89.20;;;;;;5075066;28;20210;-91
2021/10/05 02:46:07;;;;;;;6.03;4.10;;;10.00;89.30;;;;;;5074934;28;20207;-90
2021/10/05 02:48:33;;;;;;;7.80;4.20;;;9.90;89.30;;;;;;5075347;28;20191;-91
2021/10/05 02:50:59;;;;;;;4.63;3.67;;;9.90;89.40;;;;;;5074978;28;20172;-91
2021/10/05 02:53:24;;;;;;;4.30;3.53;;;9.80;89.40;;;;;;5074098;28;20294;-91
2021/10/05 02:55:50;;;;;;;5.70;3.77;;;9.80;89.50;;;;;;5075015;28;20267;-90
2021/10/05 02:58:17;;;;;;;10.10;3.60;;;9.70;89.80;;;;;;5075127;28;20218;-90
2021/10/05 03:00:43;;;;;;;5.40;4.27;;;9.70;89.90;;;;;;5075599;28;20163;-90
2021/10/05 03:03:10;;;;;;;7.63;4.37;;;9.70;89.90;;;;;;5074275;28;20253;-91
2021/10/05 03:05:36;;;;;;;6.30;4.60;;;9.70;90.00;;;;;;5075172;28;20179;-91
2021/10/05 03:08:05;;;;;;;5.53;4.10;;;9.70;90.10;;;;;;5074189;28;20253;-91
2021/10/05 03:10:31;;;;;;;5.47;3.80;;;9.70;90.20;;;;;;5073896;28;20266;-91
2021/10/05 03:12:56;;;;;;;7.83;4.20;;;9.60;90.20;;;;;;5074129;28;20293;-90
2021/10/05 03:15:22;;;;;;;6.90;4.10;;;9.70;90.40;;;;;;5075026;28;20195;-90
2021/10/05 03:17:47;;;;;;;4.97;3.83;;;9.60;90.50;;;;;;5075156;28;20226;-91
2021/10/05 03:20:13;;;;;;;6.97;4.10;;;9.60;90.60;;;;;;5074870;28;20171;-90
2021/10/05 03:22:39;;;;;;;5.07;4.10;;;9.60;90.70;;;;;;5074852;28;20182;-90
2021/10/05 03:25:05;;;;;;;7.27;4.40;;;9.60;90.80;;;;;;5074810;28;20255;-90
2021/10/05 03:27:35;;;;;;;6.27;4.20;;;9.50;90.70;;;;;;5073360;28;20210;-90
2021/10/05 03:30:06;;;;;;;5.90;4.37;;;9.50;90.80;;;;;;5073523;28;20179;-90
2021/10/05 03:32:31;;;;;;;4.90;4.30;;;9.50;90.90;;;;;;5073628;28;20297;-91
2021/10/05 03:34:57;;;;;;;8.83;4.73;;;9.40;91.00;;;;;;5073749;28;20313;-91
2021/10/05 03:37:23;;;;;;;5.10;4.23;;;9.40;91.10;;;;;;5073544;28;20186;-90
2021/10/05 03:39:49;;;;;;;6.03;4.20;;;9.40;91.20;;;;;;5073177;28;20191;-91
2021/10/05 03:42:15;;;;;;;7.90;4.33;;;9.40;91.20;;;;;;5073497;28;20233;-90
2021/10/05 03:44:41;;;;;;;5.67;4.20;;;9.30;91.20;;;;;;5073610;28;20261;-90
2021/10/05 03:47:06;;;;;;;7.53;4.60;;;9.40;91.20;;;;;;5074343;28;20171;-90
2021/10/05 03:49:32;;;;;;;6.97;4.30;;;9.30;91.40;;;;;;5073686;28;20211;-90
2021/10/05 03:51:58;;;;;;;8.37;4.83;;;9.40;91.40;;;;;;5074227;28;20175;-90
2021/10/05 03:54:23;;;;;;;7.97;4.00;;;9.30;91.50;;;;;;5074506;28;20175;-91
2021/10/05 03:56:49;;;;;;;13.67;5.50;;;9.30;91.50;;;;;;5074129;28;20168;-90
2021/10/05 03:59:19;;;;;;;8.33;5.00;;;9.40;91.60;;;;;;5073076;28;20214;-90
2021/10/05 04:01:45;;;;;;;8.80;5.13;;;9.40;91.60;;;;;;5073978;28;20163;-90
2021/10/05 04:04:11;;;;;;;8.47;5.10;;;9.30;91.60;;;;;;5071989;28;20193;-90
2021/10/05 04:06:37;;;;;;;9.10;4.43;;;9.30;91.60;;;;;;5072765;28;20186;-90
2021/10/05 04:09:05;;;;;;;6.77;4.67;;;9.40;91.70;;;;;;5072739;28;20206;-91
2021/10/05 04:11:32;;;;;;;8.10;5.17;;;9.40;91.60;;;;;;5072905;28;20179;-90
2021/10/05 04:13:58;;;;;;;9.53;6.43;;;9.40;91.60;;;;;;5073669;28;20199;-90
2021/10/05 04:16:24;;;;;;;9.83;4.57;;;9.30;91.60;;;;;;5072541;28;20789;-90
2021/10/05 04:18:49;;;;;;;6.10;5.03;;;9.40;91.60;;;;;;5073825;28;20205;-90
2021/10/05 04:21:15;;;;;;;8.57;5.40;;;9.40;91.60;;;;;;5072907;28;20706;-91
2021/10/05 04:23:41;;;;;;;13.47;5.30;;;9.40;91.60;;;;;;5073729;28;20175;-91
2021/10/05 04:26:06;;;;;;;8.60;5.70;;;9.40;91.50;;;;;;5072457;28;20639;-90
2021/10/05 04:28:32;;;;;;;9.30;5.13;;;9.40;91.50;;;;;;5072685;28;20200;-91
2021/10/05 04:30:58;;;;;;;17.10;5.50;;;9.30;91.40;;;;;;5073618;28;20179;-91
2021/10/05 04:33:23;;;;;;;14.97;5.93;;;9.30;91.50;;;;;;5072269;28;20755;-90
2021/10/05 04:35:49;;;;;;;7.53;5.07;;;9.30;91.50;;;;;;5072350;28;20199;-91
2021/10/05 04:38:15;;;;;;;9.30;5.20;;;9.30;91.50;;;;;;5073507;28;20183;-91
2021/10/05 04:40:40;;;;;;;7.53;5.13;;;9.30;91.40;;;;;;5073867;28;20260;-90
2021/10/05 04:43:06;;;;;;;7.83;4.40;;;9.30;91.50;;;;;;5072518;28;20179;-90
2021/10/05 04:45:32;;;;;;;10.03;5.37;;;9.30;91.50;;;;;;5073825;28;20172;-91
2021/10/05 04:47:58;;;;;;;10.27;4.93;;;9.20;91.50;;;;;;5072546;28;20197;-90
2021/10/05 04:50:23;;;;;;;11.20;5.77;;;9.30;91.60;;;;;;5072818;28;20262;-91
2021/10/05 04:52:49;;;;;;;8.00;4.40;;;9.30;91.50;;;;;;5073307;28;20191;-91
2021/10/05 04:55:15;;;;;;;13.63;5.73;;;9.30;91.50;;;;;;5072363;28;20179;-91
2021/10/05 04:57:40;;;;;;;12.43;4.53;;;9.30;91.40;;;;;;5072500;28;20179;-90
2021/10/05 05:00:07;;;;;;;6.37;4.70;;;9.30;91.30;;;;;;5072406;28;20195;-91
2021/10/05 05:02:33;;;;;;;9.20;4.73;;;9.30;91.30;;;;;;5072328;28;20179;-91
2021/10/05 05:04:59;;;;;;;10.83;5.10;;;9.30;91.30;;;;;;5072066;28;20176;-91
2021/10/05 05:07:25;;;;;;;12.73;5.17;;;9.30;91.30;;;;;;5073282;28;20182;-90
2021/10/05 05:09:50;;;;;;;12.90;4.83;;;9.30;91.40;;;;;;5072241;28;20199;-91
2021/10/05 05:12:16;;;;;;;11.57;4.20;;;9.30;91.30;;;;;;5073117;28;20168;-91
2021/10/05 05:14:42;;;;;;;6.27;4.43;;;9.30;91.40;;;;;;5073899;28;20178;-91
2021/10/05 05:17:07;;;;;;;6.57;4.60;;;9.40;91.30;;;;;;5077240;28;20213;-90
2021/10/05 05:19:33;;;;;;;8.27;4.37;;;9.30;91.20;;;;;;5075931;28;20198;-91
2021/10/05 05:21:59;;;;;;;9.47;4.40;;;9.30;91.30;;;;;;5077153;28;20163;-91
2021/10/05 05:24:28;;;;;;;6.67;4.03;;;9.30;91.30;;;;;;5077125;28;20179;-91
2021/10/05 05:26:55;;;;;;;9.83;4.50;;;9.30;91.30;;;;;;5077222;28;20175;-91
2021/10/05 05:29:21;;;;;;;9.20;4.87;;;9.30;91.40;;;;;;5075814;28;20694;-90
2021/10/05 05:31:48;;;;;;;6.03;4.23;;;9.30;91.30;;;;;;5075810;28;20171;-91
2021/10/05 05:34:14;;;;;;;11.80;4.23;;;9.20;91.30;;;;;;5075984;28;20206;-90
2021/10/05 05:36:40;;;;;;;8.70;4.63;;;9.20;91.30;;;;;;5075980;28;20178;-91
2021/10/05 05:39:06;;;;;;;5.60;4.03;;;9.10;91.30;;;;;;5076722;28;20262;-90
2021/10/05 05:41:32;;;;;;;6.97;4.87;;;9.10;91.50;;;;;;5076669;28;20179;-91
2021/10/05 05:43:57;;;;;;;7.30;4.73;;;9.10;91.60;;;;;;5075419;28;20224;-91
2021/10/05 05:46:23;;;;;;;5.43;4.07;;;9.10;91.60;;;;;;5076618;28;20254;-90
2021/10/05 05:48:48;;;;;;;8.60;4.70;;;9.10;91.70;;;;;;5075229;28;20203;-91
2021/10/05 05:51:14;;;;;;;6.47;4.90;;;9.10;91.80;;;;;;5075866;28;20183;-91
2021/10/05 05:53:40;;;;;;;7.97;4.80;;;9.10;91.80;;;;;;5075563;28;20284;-91
2021/10/05 05:56:05;;;;;;;7.27;4.60;;;9.10;91.90;;;;;;5076737;28;20634;-90
2021/10/05 05:58:31;;;;;;;9.73;5.20;;;9.10;91.90;;;;;;5076298;28;20732;-90
2021/10/05 06:00:57;;;;;;;7.77;4.87;;;9.10;92.00;;;;;;5075188;28;20186;-91
2021/10/05 06:03:22;;;;;;;11.30;5.23;;;9.20;92.10;;;;;;5075389;28;20184;-91
2021/10/05 06:05:48;;;;;;;10.10;5.80;;;9.20;92.10;;;;;;5074999;28;20262;-91
2021/10/05 06:08:14;;;;;;;9.33;4.70;;;9.30;92.10;;;;;;5075512;28;20613;-91
2021/10/05 06:10:39;;;;;;;6.13;5.27;;;9.30;92.00;;;;;;5075054;28;20665;-90
2021/10/05 06:13:05;;;;;;;9.70;5.50;;;9.30;92.10;;;;;;5074890;28;20615;-91
2021/10/05 06:15:34;;;;;;;12.13;5.20;;;9.30;92.10;;;;;;5076141;28;20195;-90
2021/10/05 06:17:59;;;;;;;5.93;4.60;;;9.40;92.10;;;;;;5075671;28;20252;-91
2021/10/05 06:20:29;;;;;;;12.10;5.50;;;9.50;92.00;;;;;;5075891;28;20167;-91
2021/10/05 06:22:55;;;;;;;11.23;6.30;;;9.50;91.90;;;;;;5076239;28;20179;-92
2021/10/05 06:25:25;;;;;;;7.73;4.87;;;9.60;91.90;;;;;;5074244;28;20179;-92
2021/10/05 06:27:52;;;;;;;18.73;5.80;;;9.60;91.80;;;;;;5074577;28;20175;-92
2021/10/05 06:30:19;;;;;;;11.00;5.43;;;9.60;91.70;;;;;;5075054;28;20728;-91
2021/10/05 06:32:47;;;;;;;12.90;5.57;;;9.60;91.80;;;;;;5075976;28;20199;-91
2021/10/05 06:35:13;;;;;;;8.53;5.20;;;9.70;91.60;;;;;;5074684;28;20709;-91
2021/10/05 06:37:39;;;;;;;9.90;5.70;;;9.70;91.70;;;;;;5076087;28;20164;-92
2021/10/05 06:40:08;;;;;;;12.50;5.70;;;9.70;91.70;;;;;;5074524;28;20624;-92
2021/10/05 06:42:35;;;;;;;11.60;6.77;;;9.70;91.70;;;;;;5075747;28;20206;-92
2021/10/05 06:45:04;;;;;;;8.43;5.43;;;9.80;91.70;;;;;;5076125;28;20174;-92
2021/10/05 06:47:30;;;;;;;9.83;6.07;;;9.80;91.70;;;;;;5074720;28;20662;-92
2021/10/05 06:49:56;;;;;;;9.83;6.30;;;9.80;91.70;;;;;;5074408;28;20197;-92
2021/10/05 06:52:21;;;;;;;7.90;6.17;;;9.80;91.70;;;;;;5074410;28;20638;-92
2021/10/05 06:54:47;;;;;;;8.53;5.73;;;9.90;91.70;;;;;;5075697;28;20171;-92
2021/10/05 06:57:13;;;;;;;10.43;6.07;;;9.90;91.70;;;;;;5075658;28;20167;-92
2021/10/05 06:59:38;;;;;;;10.00;6.23;;;9.90;91.70;;;;;;5075556;28;20203;-92
2021/10/05 07:02:04;;;;;;;9.33;6.07;;;10.00;91.70;;;;;;5075582;28;20225;-92
2021/10/05 07:04:30;;;;;;;9.57;7.30;;;10.00;91.60;;;;;;5074905;28;20663;-92
2021/10/05 07:06:55;;;;;;;15.97;7.10;;;10.10;91.70;;;;;;5074302;28;20258;-92
2021/10/05 07:09:21;;;;;;;9.30;6.53;;;10.10;91.70;;;;;;5075310;28;20183;-91
2021/10/05 07:11:48;;;;;;;12.90;6.77;;;10.20;91.60;;;;;;5075320;28;20171;-92
2021/10/05 07:14:14;;;;;;;10.37;6.87;;;10.30;91.60;;;;;;5075177;28;20702;-92
2021/10/05 07:16:40;;;;;;;14.20;7.20;;;10.20;91.50;;;;;;5075318;28;20237;-92
2021/10/05 07:19:05;;;;;;;12.73;6.97;;;10.30;91.50;;;;;;5075254;28;20670;-92
2021/10/05 07:21:32;;;;;;;10.80;6.83;;;10.30;91.50;;;;;;5073930;28;20175;-92
2021/10/05 07:23:58;;;;;;;10.00;6.90;;;10.40;91.50;;;;;;5075003;28;20167;-92
2021/10/05 07:26:23;;;;;;;12.70;7.37;;;10.40;91.40;;;;;;5073908;28;20182;-92
2021/10/05 07:28:49;;;;;;;12.87;7.17;;;10.50;91.40;;;;;;5073663;28;20195;-92
2021/10/05 07:31:15;;;;;;;12.73;7.47;;;10.50;91.30;;;;;;5073747;28;20228;-92
2021/10/05 07:33:42;;;;;;;14.47;7.30;;;10.50;91.30;;;;;;5074947;28;20278;-92
2021/10/05 07:36:08;;;;;;;12.47;7.53;;;10.50;91.20;;;;;;5073416;28;20175;-92
2021/10/05 07:38:33;;;;;;;12.90;7.27;;;10.60;91.20;;;;;;5074696;28;20198;-91
2021/10/05 07:40:59;;;;;;;13.60;7.73;;;10.60;91.20;;;;;;5073492;28;20175;-92
2021/10/05 07:43:25;;;;;;;11.77;7.77;;;10.70;91.20;;;;;;5073789;28;20268;-91
2021/10/05 07:45:53;;;;;;;13.13;8.30;;;10.70;91.20;;;;;;5074406;28;20195;-92
2021/10/05 07:48:18;;;;;;;17.00;8.23;;;10.70;91.20;;;;;;5075006;28;20591;-92
2021/10/05 07:50:44;;;;;;;9.93;7.27;;;10.80;91.10;;;;;;5074419;28;20233;-92
2021/10/05 07:53:09;;;;;;;14.17;7.97;;;10.80;91.00;;;;;;5074302;28;20199;-92
2021/10/05 07:55:35;;;;;;;13.40;8.60;;;10.90;90.90;;;;;;5073098;28;20167;-92
2021/10/05 07:58:01;;;;;;;10.07;7.37;;;11.00;91.00;;;;;;5073140;28;20286;-91
2021/10/05 08:00:27;;;;;;;15.37;8.10;;;11.00;90.90;;;;;;5074460;28;20654;-92
2021/10/05 08:02:53;;;;;;;14.63;8.30;;;11.10;90.70;;;;;;5073261;28;20248;-92
2021/10/05 08:05:19;;;;;;;13.30;7.57;;;11.10;90.50;;;;;;5074601;28;20178;-92
2021/10/05 08:07:47;;;;;;;16.10;7.67;;;11.20;90.40;;;;;;5074369;28;20175;-92
2021/10/05 08:10:13;;;;;;;12.47;7.63;;;11.30;90.20;;;;;;5074529;28;20631;-92
2021/10/05 08:12:40;;;;;;;10.90;7.53;;;11.30;90.00;;;;;;5074227;28;20195;-92
2021/10/05 08:15:07;;;;;;;9.43;7.40;;;11.30;90.00;;;;;;5074234;28;20164;-92
2021/10/05 08:17:33;;;;;;;10.47;7.27;;;11.40;89.90;;;;;;5072970;28;20210;-92
2021/10/05 08:19:59;;;;;;;13.60;7.67;;;11.50;89.80;;;;;;5072953;28;20179;-92
2021/10/05 08:22:25;;;;;;;12.07;7.30;;;11.60;89.70;;;;;;5072901;28;20619;-92
2021/10/05 08:24:51;;;;;;;10.30;7.60;;;11.60;89.50;;;;;;5073887;28;20229;-92
2021/10/05 08:27:17;;;;;;;16.17;8.13;;;11.70;89.30;;;;;;5074197;28;20628;-92
2021/10/05 08:29:44;;;;;;;10.30;7.80;;;11.70;89.20;;;;;;5072549;28;20191;-92
2021/10/05 08:32:11;;;;;;;10.53;7.10;;;11.80;89.10;;;;;;5072701;28;20175;-92
2021/10/05 08:34:37;;;;;;;11.70;6.90;;;11.80;89.00;;;;;;5074085;28;20167;-92
2021/10/05 08:37:04;;;;;;;14.80;7.33;;;11.90;88.70;;;;;;5072732;28;20167;-92
2021/10/05 08:39:29;;;;;;;16.27;7.10;;;11.90;88.60;;;;;;5074056;28;20184;-92
2021/10/05 08:41:55;;;;;;;8.43;6.67;;;12.00;88.30;;;;;;5073794;28;20168;-92
2021/10/05 08:44:22;;;;;;;9.87;6.77;;;12.00;88.30;;;;;;5073860;28;20171;-92
2021/10/05 08:46:49;;;;;;;10.07;6.70;;;12.00;87.80;;;;;;5074269;28;20535;-92
2021/10/05 08:49:15;;;;;;;11.43;6.33;;;12.10;87.40;;;;;;5072158;28;20234;-92
2021/10/05 08:51:41;;;;;;;10.57;6.53;;;12.10;87.40;;;;;;5073861;28;20280;-92
2021/10/05 08:54:10;;;;;;;10.27;6.40;;;12.20;87.80;;;;;;5073386;28;20195;-92
2021/10/05 08:56:35;;;;;;;14.63;6.47;;;12.30;87.30;;;;;;5073623;28;20643;-92
2021/10/05 08:59:01;;;;;;;7.67;6.07;;;12.30;87.30;;;;;;5072499;28;20203;-92
2021/10/05 09:01:34;;;;;;;9.67;6.40;;;12.30;87.20;;;;;;5073974;28;20168;-92
2021/10/05 09:04:01;;;;;;;11.23;6.50;;;12.30;86.60;;;;;;5073595;28;20183;-92
2021/10/05 09:06:28;;;;;;;9.50;6.17;;;12.30;86.30;;;;;;5073455;28;20171;-92
2021/10/05 09:08:54;;;;;;;8.13;6.20;;;12.40;85.90;;;;;;5072437;28;20278;-92
2021/10/05 09:11:24;;;;;;;7.50;5.40;;;12.50;85.80;;;;;;5073733;28;20167;-92
2021/10/05 09:13:57;;;;;;;9.83;6.30;;;12.50;85.90;;;;;;5073269;28;20561;-92
2021/10/05 09:16:25;;;;;;;12.37;4.93;;;12.60;86.00;;;;;;5073396;28;20568;-92
2021/10/05 09:19:03;;;;;;;9.07;5.83;;;12.60;85.40;;;;;;5073308;28;20179;-92
2021/10/05 09:21:33;;;;;;;9.63;5.60;;;12.60;85.40;;;;;;5073182;28;20636;-92
2021/10/05 09:24:02;;;;;;;6.97;4.97;;;12.60;85.20;;;;;;5071833;28;20163;-92
2021/10/05 09:26:34;;;;;;;6.93;5.50;;;12.70;85.30;;;;;;5072065;28;20180;-91
2021/10/05 09:29:15;;;;;;;15.10;5.13;;;12.70;85.40;;;;;;5073189;28;20194;-92
2021/10/05 09:32:02;;;;;;;10.10;5.20;;;12.80;84.90;;;;;;5073091;28;20172;-92
2021/10/05 09:34:39;;;;;;;9.27;4.23;;;12.80;84.60;;;;;;5072092;28;20282;-92
2021/10/05 09:37:10;;;;;;;6.83;4.10;;;12.80;85.20;;;;;;5072671;28;20163;-92
2021/10/05 09:39:51;;;;;;;10.43;4.67;;;12.90;84.90;;;;;;5071927;28;20683;-92
2021/10/05 09:42:24;;;;;;;11.03;4.53;;;12.90;84.30;;;;;;5071889;28;20251;-92
2021/10/05 09:44:52;;;;;;;10.73;4.90;;;12.90;84.30;;;;;;5073706;28;20268;-92
2021/10/05 09:47:28;;;;;;;6.07;4.10;;;13.00;84.20;;;;;;5073575;28;20186;-92
2021/10/05 09:49:54;;;;;;;8.17;3.83;;;13.00;84.40;;;;;;5072294;28;20531;-92
2021/10/05 09:52:19;;;;;;;6.50;4.60;;;13.10;84.30;;;;;;5072083;28;20224;-92
2021/10/05 09:54:45;;;;;;;6.43;3.70;;;13.00;83.90;;;;;;5073335;28;20167;-92
2021/10/05 09:57:11;;;;;;;6.20;3.63;;;13.10;83.80;;;;;;5072591;28;20179;-92
2021/10/05 09:59:37;;;;;;;4.93;3.60;;;13.00;83.40;;;;;;5072136;28;20783;-92
2021/10/05 10:02:03;;;;;;;4.53;3.97;;;13.00;84.00;;;;;;5074661;28;20178;-92
2021/10/05 10:04:29;;;;;;;4.90;3.93;;;13.10;84.00;;;;;;5075953;28;20179;-92
2021/10/05 10:07:00;;;;;;;6.73;4.23;;;13.10;84.00;;;;;;5077193;28;20175;-91
2021/10/05 10:09:25;;;;;;;7.67;4.40;;;13.10;83.70;;;;;;5075629;28;20203;-91
2021/10/05 10:11:51;;;;;;;6.47;4.20;;;13.00;83.50;;;;;;5075507;28;20522;-92
2021/10/05 10:14:20;;;;;;;8.30;5.17;;;13.00;83.90;;;;;;5075568;28;20295;-91
2021/10/05 10:16:48;;;;;;;15.57;5.23;;;13.00;84.70;;;;;;5075404;28;20175;-91
2021/10/05 10:19:25;;;;;;;9.93;5.40;;;13.00;84.30;;;;;;5076383;28;20270;-91
2021/10/05 10:21:50;;;;;;;13.70;6.70;;;12.90;84.40;;;;;;5075227;28;20221;-91
2021/10/05 10:24:18;;;;;;;7.27;5.63;;;13.00;85.00;;;;;;5075096;28;20175;-92
2021/10/05 10:26:48;;;;;;;13.27;5.97;;;13.00;84.50;;;;;;5074995;28;20179;-91
2021/10/05 10:29:26;;;;;;;8.37;6.20;;;13.00;84.70;;;;;;5076028;28;20198;-91
2021/10/05 10:31:51;;;;;;;9.13;6.40;;;12.90;84.80;;;;;;5075150;28;20227;-91
2021/10/05 10:34:23;;;;;;;10.40;6.73;;;13.00;85.10;;;;;;5074856;28;20199;-91
2021/10/05 10:36:50;;;;;;;8.17;5.93;;;13.00;85.30;;;;;;5074960;28;20187;-91
2021/10/05 10:39:18;;;;;;;9.03;6.17;;;13.00;85.20;;;;;;5074864;28;20237;-91
2021/10/05 10:41:58;;;;;;;9.70;7.37;;;13.00;85.30;;;;;;5075509;28;20171;-91
2021/10/05 10:44:37;;;;;;;9.67;7.27;;;12.90;85.20;;;;;;5074872;28;20171;-91
2021/10/05 10:47:09;;;;;;;8.33;7.30;;;12.80;85.70;;;;;;5076022;28;20563;-91
2021/10/05 10:49:35;;;;;;;10.97;8.30;;;12.80;86.00;;;;;;5074583;28;20244;-91
2021/10/05 10:52:02;;;;;;;8.83;7.93;;;12.80;86.10;;;;;;5074832;28;20626;-91
2021/10/05 10:54:27;;;;;;;8.90;7.90;;;12.80;86.40;;;;;;5074560;28;20225;-91
2021/10/05 10:57:03;;;;;;;9.57;8.57;;;12.80;86.70;;;;;;5075683;28;20624;-91
2021/10/05 10:59:29;;;;;;;11.37;9.27;;;12.80;86.50;;;;;;5074373;28;20210;-91
2021/10/05 11:02:04;;;;;;;11.33;8.50;;;12.80;87.00;;;;;;5074249;28;20179;-91
2021/10/05 11:04:31;;;;;;;10.17;7.77;;;12.80;86.90;;;;;;5074372;28;20262;-91
2021/10/05 11:06:58;;;;;;;9.00;7.57;;;12.80;87.00;;;;;;5074272;28;20199;-91
2021/10/05 11:09:36;;;;;;;9.77;8.83;;;12.90;86.50;;;;;;5074131;28;20195;-91
2021/10/05 11:12:07;;;;;;;9.60;8.27;;;12.80;86.40;;;;;;5073785;28;20183;-91
2021/10/05 11:14:37;;;;;;;9.33;7.77;;;12.80;86.70;;;;;;5074004;28;20195;-91
2021/10/05 11:17:10;;;;;;;10.43;7.30;;;12.80;86.50;;;;;;5075053;28;20233;-91
2021/10/05 11:19:41;;;;;;;10.57;8.13;;;12.90;86.60;;;;;;5074004;28;20191;-91
2021/10/05 11:22:13;;;;;;;8.50;7.60;;;12.90;86.90;;;;;;5073904;28;20266;-92
2021/10/05 11:24:48;;;;;;;15.77;8.37;;;13.00;86.80;;;;;;5073839;28;20171;-91
2021/10/05 11:27:22;;;;;;;13.87;9.00;;;13.00;86.70;;;;;;5073809;28;20170;-91
2021/10/05 11:29:48;;;;;;;8.83;7.77;;;13.00;86.90;;;;;;5073956;28;20683;-91
2021/10/05 11:32:18;;;;;;;8.30;7.23;;;13.00;86.70;;;;;;5073762;28;20175;-91
2021/10/05 11:34:46;;;;;;;19.03;10.67;;;13.10;87.10;;;;;;5073856;28;20186;-91
2021/10/05 11:37:14;;;;;;;15.40;10.43;;;13.10;87.30;;;;;;5073790;28;20178;-91
2021/10/05 11:39:41;;;;;;;11.17;8.50;;;13.10;87.60;;;;;;5073624;28;20198;-92
2021/10/05 11:42:21;;;;;;;7.97;7.17;;;13.10;87.60;;;;;;5073595;28;20181;-91
2021/10/05 11:44:49;;;;;;;9.00;7.03;;;13.00;86.80;;;;;;5074755;28;20233;-91
2021/10/05 11:47:20;;;;;;;9.30;6.67;;;13.00;87.10;;;;;;5074667;28;20260;-91
2021/10/05 11:49:48;;;;;;;7.83;7.13;;;13.00;87.40;;;;;;5073555;28;20764;-91
2021/10/05 11:52:19;;;;;;;9.20;7.37;;;13.10;87.50;;;;;;5074786;28;20201;-91
2021/10/05 11:54:48;;;;;;;7.93;6.53;;;13.10;87.30;;;;;;5074124;28;20183;-92
2021/10/05 11:57:20;;;;;;;8.83;6.80;;;13.10;87.20;;;;;;5074182;28;20263;-92
2021/10/05 11:59:47;;;;;;;7.70;6.93;;;13.20;87.40;;;;;;5073584;28;20235;-92
2021/10/05 12:02:16;;;;;;;7.17;6.47;;;13.20;87.20;;;;;;5073941;28;20722;-91
2021/10/05 12:04:54;;;;;;;7.83;6.20;;;13.20;87.60;;;;;;5073893;28;20175;-92
2021/10/05 12:07:23;;;;;;;6.90;6.20;;;13.30;87.50;;;;;;5073743;28;20209;-92
2021/10/05 12:09:56;;;;;;;6.77;6.17;;;13.40;87.80;;;;;;5074634;28;20191;-91
2021/10/05 12:12:25;;;;;;;6.20;5.70;;;13.40;87.70;;;;;;5075784;28;20639;-92
2021/10/05 12:14:57;;;;;;;6.07;5.57;;;13.40;87.30;;;;;;5073863;28;20172;-92
2021/10/05 12:17:23;;;;;;;5.73;5.23;;;13.40;87.70;;;;;;5074068;28;20172;-92
2021/10/05 12:20:04;;;;;;;5.87;5.37;;;13.40;87.40;;;;;;5074226;28;20607;-92
2021/10/05 12:22:35;;;;;;;5.93;5.33;;;13.30;87.00;;;;;;5074763;28;20529;-92
2021/10/05 12:25:03;;;;;;;5.90;5.40;;;13.30;87.00;;;;;;5074397;28;20166;-92
2021/10/05 12:27:32;;;;;;;5.33;4.87;;;13.30;87.20;;;;;;5073857;28;20182;-92
2021/10/05 12:29:58;;;;;;;5.30;4.53;;;13.30;87.10;;;;;;5073917;28;20198;-92
2021/10/05 12:32:46;;;;;;;4.93;4.47;;;13.40;87.40;;;;;;5074123;28;20254;-92
2021/10/05 12:35:36;;;;;;;5.33;4.10;;;13.50;87.30;;;;;;5074526;28;20164;-92
2021/10/05 12:38:23;;;;;;;4.33;3.83;;;13.50;86.90;;;;;;5073549;28;20261;-92
2021/10/05 12:40:55;;;;;;;5.07;3.90;;;13.40;86.70;;;;;;5074535;28;20160;-93
2021/10/05 12:43:41;;;;;;;4.23;3.93;;;13.50;86.90;;;;;;5073803;28;20182;-92
2021/10/05 12:46:13;;;;;;;4.00;3.60;;;13.60;86.80;;;;;;5073928;28;20182;-92
2021/10/05 12:48:42;;;;;;;3.70;3.13;;;13.70;86.90;;;;;;5074999;28;20286;-90
2021/10/05 12:51:12;;;;;;;4.40;3.70;;;13.70;86.40;;;;;;5072637;28;20651;-89